sensor_id;sensor_type;location;lat;lon;timestamp;P1;durP1;ratioP1;P2;durP2;ratioP2
72335;SDS011;65062;48.446;8.834;2023-03-01T00:01:04;13.90;;;6.43;;
72335;SDS011;65062;48.446;8.834;2023-03-01T00:04:06;20.85;;;8.57;;
72335;SDS011;65062;48.446;8.834;2023-03-01T00:07:07;14.80;;;7.75;;
72335;SDS011;65062;48.446;8.834;2023-03-01T00:10:07;15.27;;;8.23;;
72335;SDS011;65062;48.446;8.834;2023-03-01T00:13:08;16.17;;;8.82;;
72335;SDS011;65062;48.446;8.834;2023-03-01T00:16:10;18.23;;;8.82;;
72335;SDS011;65062;48.446;8.834;2023-03-01T00:19:14;17.25;;;9.70;;
72335;SDS011;65062;48.446;8.834;2023-03-01T00:22:18;18.40;;;8.13;;
72335;SDS011;65062;48.446;8.834;2023-03-01T00:25:19;20.10;;;7.57;;
72335;SDS011;65062;48.446;8.834;2023-03-01T00:28:19;19.90;;;7.75;;
72335;SDS011;65062;48.446;8.834;2023-03-01T00:31:21;18.70;;;9.05;;
72335;SDS011;65062;48.446;8.834;2023-03-01T00:34:22;15.40;;;7.03;;
72335;SDS011;65062;48.446;8.834;2023-03-01T00:37:23;18.65;;;8.55;;
72335;SDS011;65062;48.446;8.834;2023-03-01T00:40:24;12.18;;;6.47;;
72335;SDS011;65062;48.446;8.834;2023-03-01T00:43:25;15.90;;;8.50;;
72335;SDS011;65062;48.446;8.834;2023-03-01T00:46:26;20.98;;;8.63;;
72335;SDS011;65062;48.446;8.834;2023-03-01T00:49:27;16.70;;;7.75;;
72335;SDS011;65062;48.446;8.834;2023-03-01T00:52:27;11.52;;;6.82;;
72335;SDS011;65062;48.446;8.834;2023-03-01T00:55:28;16.30;;;8.88;;
72335;SDS011;65062;48.446;8.834;2023-03-01T00:58:29;17.13;;;7.22;;
72335;SDS011;65062;48.446;8.834;2023-03-01T01:01:30;18.88;;;7.35;;
72335;SDS011;65062;48.446;8.834;2023-03-01T01:04:31;14.38;;;7.07;;
72335;SDS011;65062;48.446;8.834;2023-03-01T01:07:31;14.93;;;7.90;;
72335;SDS011;65062;48.446;8.834;2023-03-01T01:10:35;16.13;;;7.50;;
72335;SDS011;65062;48.446;8.834;2023-03-01T01:13:36;15.73;;;8.10;;
72335;SDS011;65062;48.446;8.834;2023-03-01T01:16:37;13.05;;;6.70;;
72335;SDS011;65062;48.446;8.834;2023-03-01T01:19:38;13.27;;;6.35;;
72335;SDS011;65062;48.446;8.834;2023-03-01T01:22:38;17.63;;;8.10;;
72335;SDS011;65062;48.446;8.834;2023-03-01T01:25:39;19.70;;;9.13;;
72335;SDS011;65062;48.446;8.834;2023-03-01T01:28:39;17.15;;;8.27;;
72335;SDS011;65062;48.446;8.834;2023-03-01T01:31:41;15.98;;;7.85;;
72335;SDS011;65062;48.446;8.834;2023-03-01T01:37:42;17.00;;;7.60;;
72335;SDS011;65062;48.446;8.834;2023-03-01T01:40:46;14.95;;;7.55;;
72335;SDS011;65062;48.446;8.834;2023-03-01T01:47:23;14.82;;;8.38;;
72335;SDS011;65062;48.446;8.834;2023-03-01T01:50:24;20.50;;;9.98;;
72335;SDS011;65062;48.446;8.834;2023-03-01T01:53:25;17.35;;;9.18;;
72335;SDS011;65062;48.446;8.834;2023-03-01T01:56:26;15.32;;;7.50;;
72335;SDS011;65062;48.446;8.834;2023-03-01T01:59:28;17.45;;;8.35;;
72335;SDS011;65062;48.446;8.834;2023-03-01T02:02:31;15.55;;;8.23;;
72335;SDS011;65062;48.446;8.834;2023-03-01T02:08:43;17.63;;;8.05;;
72335;SDS011;65062;48.446;8.834;2023-03-01T02:11:45;17.80;;;7.38;;
72335;SDS011;65062;48.446;8.834;2023-03-01T02:14:47;18.13;;;7.18;;
72335;SDS011;65062;48.446;8.834;2023-03-01T02:17:48;12.30;;;6.72;;
72335;SDS011;65062;48.446;8.834;2023-03-01T02:24:06;21.13;;;9.07;;
72335;SDS011;65062;48.446;8.834;2023-03-01T02:27:38;21.45;;;7.80;;
72335;SDS011;65062;48.446;8.834;2023-03-01T02:31:01;18.25;;;7.72;;
72335;SDS011;65062;48.446;8.834;2023-03-01T02:34:23;16.38;;;8.23;;
72335;SDS011;65062;48.446;8.834;2023-03-01T02:37:29;22.25;;;9.15;;
72335;SDS011;65062;48.446;8.834;2023-03-01T02:40:29;20.15;;;9.23;;
72335;SDS011;65062;48.446;8.834;2023-03-01T02:43:33;15.93;;;8.00;;
72335;SDS011;65062;48.446;8.834;2023-03-01T02:46:41;17.52;;;9.15;;
72335;SDS011;65062;48.446;8.834;2023-03-01T02:49:43;17.83;;;9.77;;
72335;SDS011;65062;48.446;8.834;2023-03-01T02:52:47;17.42;;;8.82;;
72335;SDS011;65062;48.446;8.834;2023-03-01T02:55:54;16.80;;;7.70;;
72335;SDS011;65062;48.446;8.834;2023-03-01T02:58:55;17.85;;;8.77;;
72335;SDS011;65062;48.446;8.834;2023-03-01T03:02:00;19.77;;;9.27;;
72335;SDS011;65062;48.446;8.834;2023-03-01T03:05:05;18.33;;;9.00;;
72335;SDS011;65062;48.446;8.834;2023-03-01T03:08:11;18.17;;;8.77;;
72335;SDS011;65062;48.446;8.834;2023-03-01T03:11:11;20.65;;;8.98;;
72335;SDS011;65062;48.446;8.834;2023-03-01T03:14:13;19.25;;;9.13;;
72335;SDS011;65062;48.446;8.834;2023-03-01T03:17:15;18.55;;;8.48;;
72335;SDS011;65062;48.446;8.834;2023-03-01T03:20:16;17.25;;;8.43;;
72335;SDS011;65062;48.446;8.834;2023-03-01T03:23:19;17.75;;;8.93;;
72335;SDS011;65062;48.446;8.834;2023-03-01T03:26:20;18.75;;;10.35;;
72335;SDS011;65062;48.446;8.834;2023-03-01T03:29:21;17.95;;;9.45;;
72335;SDS011;65062;48.446;8.834;2023-03-01T03:32:21;20.77;;;9.73;;
72335;SDS011;65062;48.446;8.834;2023-03-01T03:35:28;19.17;;;8.88;;
72335;SDS011;65062;48.446;8.834;2023-03-01T03:38:30;17.17;;;8.45;;
72335;SDS011;65062;48.446;8.834;2023-03-01T03:41:31;18.42;;;8.68;;
72335;SDS011;65062;48.446;8.834;2023-03-01T03:44:34;18.67;;;8.82;;
72335;SDS011;65062;48.446;8.834;2023-03-01T03:47:36;17.13;;;8.60;;
72335;SDS011;65062;48.446;8.834;2023-03-01T03:50:37;19.80;;;9.45;;
72335;SDS011;65062;48.446;8.834;2023-03-01T03:53:39;12.55;;;6.70;;
72335;SDS011;65062;48.446;8.834;2023-03-01T03:56:39;20.80;;;9.63;;
72335;SDS011;65062;48.446;8.834;2023-03-01T03:59:40;20.83;;;8.82;;
72335;SDS011;65062;48.446;8.834;2023-03-01T04:02:40;21.48;;;9.27;;
72335;SDS011;65062;48.446;8.834;2023-03-01T04:05:42;18.77;;;9.18;;
72335;SDS011;65062;48.446;8.834;2023-03-01T04:08:42;22.88;;;10.50;;
72335;SDS011;65062;48.446;8.834;2023-03-01T04:11:43;29.73;;;12.55;;
72335;SDS011;65062;48.446;8.834;2023-03-01T04:14:43;17.95;;;8.93;;
72335;SDS011;65062;48.446;8.834;2023-03-01T04:17:44;22.55;;;9.43;;
72335;SDS011;65062;48.446;8.834;2023-03-01T04:20:46;23.05;;;9.02;;
72335;SDS011;65062;48.446;8.834;2023-03-01T04:23:47;19.35;;;9.38;;
72335;SDS011;65062;48.446;8.834;2023-03-01T04:26:48;20.77;;;10.00;;
72335;SDS011;65062;48.446;8.834;2023-03-01T04:29:48;21.65;;;10.48;;
72335;SDS011;65062;48.446;8.834;2023-03-01T04:32:48;19.50;;;9.88;;
72335;SDS011;65062;48.446;8.834;2023-03-01T04:35:50;18.15;;;9.02;;
72335;SDS011;65062;48.446;8.834;2023-03-01T04:38:51;19.98;;;10.23;;
72335;SDS011;65062;48.446;8.834;2023-03-01T04:41:51;18.83;;;9.05;;
72335;SDS011;65062;48.446;8.834;2023-03-01T04:44:52;20.15;;;10.05;;
72335;SDS011;65062;48.446;8.834;2023-03-01T04:47:52;20.20;;;9.80;;
72335;SDS011;65062;48.446;8.834;2023-03-01T04:50:53;19.60;;;9.30;;
72335;SDS011;65062;48.446;8.834;2023-03-01T04:53:53;15.52;;;8.10;;
72335;SDS011;65062;48.446;8.834;2023-03-01T04:56:54;20.13;;;10.13;;
72335;SDS011;65062;48.446;8.834;2023-03-01T04:59:54;18.75;;;8.50;;
72335;SDS011;65062;48.446;8.834;2023-03-01T05:02:56;22.55;;;9.95;;
72335;SDS011;65062;48.446;8.834;2023-03-01T05:05:59;21.35;;;10.07;;
72335;SDS011;65062;48.446;8.834;2023-03-01T05:08:59;17.73;;;8.80;;
72335;SDS011;65062;48.446;8.834;2023-03-01T05:12:00;18.52;;;9.43;;
72335;SDS011;65062;48.446;8.834;2023-03-01T05:15:00;18.80;;;8.95;;
72335;SDS011;65062;48.446;8.834;2023-03-01T05:18:01;18.85;;;8.75;;
72335;SDS011;65062;48.446;8.834;2023-03-01T05:21:02;21.08;;;9.68;;
72335;SDS011;65062;48.446;8.834;2023-03-01T05:24:05;18.58;;;9.05;;
72335;SDS011;65062;48.446;8.834;2023-03-01T05:27:10;17.33;;;8.65;;
72335;SDS011;65062;48.446;8.834;2023-03-01T05:30:11;18.90;;;9.45;;
72335;SDS011;65062;48.446;8.834;2023-03-01T05:33:15;20.40;;;9.43;;
72335;SDS011;65062;48.446;8.834;2023-03-01T05:36:15;20.35;;;9.52;;
72335;SDS011;65062;48.446;8.834;2023-03-01T05:39:16;17.20;;;8.50;;
72335;SDS011;65062;48.446;8.834;2023-03-01T05:42:16;16.65;;;9.25;;
72335;SDS011;65062;48.446;8.834;2023-03-01T05:45:17;16.45;;;8.48;;
72335;SDS011;65062;48.446;8.834;2023-03-01T05:48:18;19.73;;;9.52;;
72335;SDS011;65062;48.446;8.834;2023-03-01T05:51:19;18.95;;;9.38;;
72335;SDS011;65062;48.446;8.834;2023-03-01T05:54:20;20.40;;;9.25;;
72335;SDS011;65062;48.446;8.834;2023-03-01T05:57:21;20.75;;;9.70;;
72335;SDS011;65062;48.446;8.834;2023-03-01T06:00:22;21.45;;;9.60;;
72335;SDS011;65062;48.446;8.834;2023-03-01T06:03:22;20.77;;;10.02;;
72335;SDS011;65062;48.446;8.834;2023-03-01T06:06:23;20.27;;;9.70;;
72335;SDS011;65062;48.446;8.834;2023-03-01T06:09:24;20.90;;;10.90;;
72335;SDS011;65062;48.446;8.834;2023-03-01T06:12:25;18.38;;;9.88;;
72335;SDS011;65062;48.446;8.834;2023-03-01T06:15:26;20.48;;;9.25;;
72335;SDS011;65062;48.446;8.834;2023-03-01T06:18:26;19.70;;;8.80;;
72335;SDS011;65062;48.446;8.834;2023-03-01T06:21:27;21.23;;;10.77;;
72335;SDS011;65062;48.446;8.834;2023-03-01T06:24:27;19.85;;;9.80;;
72335;SDS011;65062;48.446;8.834;2023-03-01T06:27:28;20.20;;;10.32;;
72335;SDS011;65062;48.446;8.834;2023-03-01T06:30:29;18.77;;;9.95;;
72335;SDS011;65062;48.446;8.834;2023-03-01T06:33:29;21.48;;;9.98;;
72335;SDS011;65062;48.446;8.834;2023-03-01T06:36:29;20.65;;;10.07;;
72335;SDS011;65062;48.446;8.834;2023-03-01T06:39:30;18.80;;;9.52;;
72335;SDS011;65062;48.446;8.834;2023-03-01T06:42:31;22.48;;;11.18;;
72335;SDS011;65062;48.446;8.834;2023-03-01T06:45:31;27.33;;;13.10;;
72335;SDS011;65062;48.446;8.834;2023-03-01T06:48:32;20.45;;;10.52;;
72335;SDS011;65062;48.446;8.834;2023-03-01T06:51:33;26.38;;;12.57;;
72335;SDS011;65062;48.446;8.834;2023-03-01T06:54:34;27.90;;;13.15;;
72335;SDS011;65062;48.446;8.834;2023-03-01T06:57:34;22.88;;;10.52;;
72335;SDS011;65062;48.446;8.834;2023-03-01T07:00:34;21.08;;;9.90;;
72335;SDS011;65062;48.446;8.834;2023-03-01T07:03:35;20.05;;;10.10;;
72335;SDS011;65062;48.446;8.834;2023-03-01T07:06:35;21.73;;;11.02;;
72335;SDS011;65062;48.446;8.834;2023-03-01T07:09:35;23.67;;;11.10;;
72335;SDS011;65062;48.446;8.834;2023-03-01T07:12:36;20.83;;;10.20;;
72335;SDS011;65062;48.446;8.834;2023-03-01T07:15:36;22.30;;;10.25;;
72335;SDS011;65062;48.446;8.834;2023-03-01T07:18:37;22.02;;;10.68;;
72335;SDS011;65062;48.446;8.834;2023-03-01T07:21:37;20.85;;;10.88;;
72335;SDS011;65062;48.446;8.834;2023-03-01T07:24:38;22.25;;;10.32;;
72335;SDS011;65062;48.446;8.834;2023-03-01T07:27:39;21.08;;;10.55;;
72335;SDS011;65062;48.446;8.834;2023-03-01T07:30:39;22.90;;;11.00;;
72335;SDS011;65062;48.446;8.834;2023-03-01T07:33:40;20.48;;;10.52;;
72335;SDS011;65062;48.446;8.834;2023-03-01T07:36:40;20.00;;;10.63;;
72335;SDS011;65062;48.446;8.834;2023-03-01T07:39:43;23.15;;;11.23;;
72335;SDS011;65062;48.446;8.834;2023-03-01T07:42:43;22.50;;;11.27;;
72335;SDS011;65062;48.446;8.834;2023-03-01T07:45:43;20.17;;;10.77;;
72335;SDS011;65062;48.446;8.834;2023-03-01T07:48:44;26.48;;;11.82;;
72335;SDS011;65062;48.446;8.834;2023-03-01T07:51:44;24.30;;;12.82;;
72335;SDS011;65062;48.446;8.834;2023-03-01T07:54:45;23.52;;;12.02;;
72335;SDS011;65062;48.446;8.834;2023-03-01T07:57:45;25.17;;;11.93;;
72335;SDS011;65062;48.446;8.834;2023-03-01T08:00:45;26.55;;;12.32;;
72335;SDS011;65062;48.446;8.834;2023-03-01T08:03:46;21.20;;;10.77;;
72335;SDS011;65062;48.446;8.834;2023-03-01T08:06:46;22.98;;;10.20;;
72335;SDS011;65062;48.446;8.834;2023-03-01T08:09:46;12.75;;;6.68;;
72335;SDS011;65062;48.446;8.834;2023-03-01T08:12:47;11.90;;;6.20;;
72335;SDS011;65062;48.446;8.834;2023-03-01T08:15:48;9.43;;;5.22;;
72335;SDS011;65062;48.446;8.834;2023-03-01T08:18:49;11.57;;;6.05;;
72335;SDS011;65062;48.446;8.834;2023-03-01T08:21:49;8.90;;;4.75;;
72335;SDS011;65062;48.446;8.834;2023-03-01T08:24:49;7.97;;;5.32;;
72335;SDS011;65062;48.446;8.834;2023-03-01T08:27:50;13.27;;;6.70;;
72335;SDS011;65062;48.446;8.834;2023-03-01T08:30:50;14.43;;;6.35;;
72335;SDS011;65062;48.446;8.834;2023-03-01T08:33:51;20.10;;;8.95;;
72335;SDS011;65062;48.446;8.834;2023-03-01T08:36:57;7.40;;;5.13;;
72335;SDS011;65062;48.446;8.834;2023-03-01T08:39:58;21.90;;;10.93;;
72335;SDS011;65062;48.446;8.834;2023-03-01T08:43:00;22.33;;;9.80;;
72335;SDS011;65062;48.446;8.834;2023-03-01T08:46:00;10.98;;;5.82;;
72335;SDS011;65062;48.446;8.834;2023-03-01T08:49:02;8.50;;;4.95;;
72335;SDS011;65062;48.446;8.834;2023-03-01T08:52:07;13.90;;;6.82;;
72335;SDS011;65062;48.446;8.834;2023-03-01T08:55:07;11.82;;;6.63;;
72335;SDS011;65062;48.446;8.834;2023-03-01T08:58:08;14.70;;;6.45;;
72335;SDS011;65062;48.446;8.834;2023-03-01T09:01:09;11.25;;;6.32;;
72335;SDS011;65062;48.446;8.834;2023-03-01T09:04:11;19.00;;;8.05;;
72335;SDS011;65062;48.446;8.834;2023-03-01T09:07:12;6.47;;;3.30;;
72335;SDS011;65062;48.446;8.834;2023-03-01T09:10:13;16.85;;;9.45;;
72335;SDS011;65062;48.446;8.834;2023-03-01T09:13:13;17.83;;;9.25;;
72335;SDS011;65062;48.446;8.834;2023-03-01T09:16:15;21.17;;;11.65;;
72335;SDS011;65062;48.446;8.834;2023-03-01T09:19:17;23.10;;;10.95;;
72335;SDS011;65062;48.446;8.834;2023-03-01T09:22:17;16.05;;;8.27;;
72335;SDS011;65062;48.446;8.834;2023-03-01T09:25:18;21.27;;;11.13;;
72335;SDS011;65062;48.446;8.834;2023-03-01T09:28:18;16.73;;;8.52;;
72335;SDS011;65062;48.446;8.834;2023-03-01T09:31:20;19.65;;;10.70;;
72335;SDS011;65062;48.446;8.834;2023-03-01T09:34:22;18.25;;;11.55;;
72335;SDS011;65062;48.446;8.834;2023-03-01T09:37:23;18.42;;;10.13;;
72335;SDS011;65062;48.446;8.834;2023-03-01T09:40:24;20.45;;;9.73;;
72335;SDS011;65062;48.446;8.834;2023-03-01T09:43:37;14.13;;;8.25;;
72335;SDS011;65062;48.446;8.834;2023-03-01T09:53:20;16.65;;;6.68;;
72335;SDS011;65062;48.446;8.834;2023-03-01T09:59:59;15.23;;;8.05;;
72335;SDS011;65062;48.446;8.834;2023-03-01T10:06:22;16.17;;;9.50;;
72335;SDS011;65062;48.446;8.834;2023-03-01T10:09:23;12.27;;;6.97;;
72335;SDS011;65062;48.446;8.834;2023-03-01T10:12:27;16.33;;;8.77;;
72335;SDS011;65062;48.446;8.834;2023-03-01T10:15:36;14.30;;;8.00;;
72335;SDS011;65062;48.446;8.834;2023-03-01T10:18:42;10.82;;;5.28;;
72335;SDS011;65062;48.446;8.834;2023-03-01T10:21:46;15.85;;;7.78;;
72335;SDS011;65062;48.446;8.834;2023-03-01T10:24:48;14.45;;;7.75;;
72335;SDS011;65062;48.446;8.834;2023-03-01T10:27:54;11.95;;;5.55;;
72335;SDS011;65062;48.446;8.834;2023-03-01T10:30:59;17.23;;;9.18;;
72335;SDS011;65062;48.446;8.834;2023-03-01T10:34:00;26.02;;;11.57;;
72335;SDS011;65062;48.446;8.834;2023-03-01T10:37:08;21.58;;;10.63;;
72335;SDS011;65062;48.446;8.834;2023-03-01T10:40:11;16.55;;;7.35;;
72335;SDS011;65062;48.446;8.834;2023-03-01T10:43:12;19.63;;;10.05;;
72335;SDS011;65062;48.446;8.834;2023-03-01T10:46:29;20.67;;;10.13;;
72335;SDS011;65062;48.446;8.834;2023-03-01T10:49:31;11.40;;;6.35;;
72335;SDS011;65062;48.446;8.834;2023-03-01T10:52:33;14.20;;;8.25;;
72335;SDS011;65062;48.446;8.834;2023-03-01T10:55:36;13.98;;;7.47;;
72335;SDS011;65062;48.446;8.834;2023-03-01T10:58:39;16.73;;;7.57;;
72335;SDS011;65062;48.446;8.834;2023-03-01T11:01:41;15.45;;;10.27;;
72335;SDS011;65062;48.446;8.834;2023-03-01T11:08:07;17.25;;;8.13;;
72335;SDS011;65062;48.446;8.834;2023-03-01T11:11:18;14.93;;;8.73;;
72335;SDS011;65062;48.446;8.834;2023-03-01T11:14:38;13.00;;;8.00;;
72335;SDS011;65062;48.446;8.834;2023-03-01T11:17:50;10.32;;;6.38;;
72335;SDS011;65062;48.446;8.834;2023-03-01T11:20:51;12.32;;;7.45;;
72335;SDS011;65062;48.446;8.834;2023-03-01T11:23:54;15.75;;;8.65;;
72335;SDS011;65062;48.446;8.834;2023-03-01T11:26:59;14.43;;;7.60;;
72335;SDS011;65062;48.446;8.834;2023-03-01T11:30:05;17.58;;;9.90;;
72335;SDS011;65062;48.446;8.834;2023-03-01T11:39:39;14.70;;;8.35;;
72335;SDS011;65062;48.446;8.834;2023-03-01T11:49:41;16.60;;;9.85;;
72335;SDS011;65062;48.446;8.834;2023-03-01T12:09:32;14.18;;;9.25;;
72335;SDS011;65062;48.446;8.834;2023-03-01T12:22:35;16.00;;;10.77;;
72335;SDS011;65062;48.446;8.834;2023-03-01T12:48:57;16.15;;;9.57;;
72335;SDS011;65062;48.446;8.834;2023-03-01T12:52:01;17.98;;;10.75;;
72335;SDS011;65062;48.446;8.834;2023-03-01T12:55:44;12.52;;;7.75;;
72335;SDS011;65062;48.446;8.834;2023-03-01T13:01:53;15.20;;;10.15;;
72335;SDS011;65062;48.446;8.834;2023-03-01T13:11:42;10.68;;;7.05;;
72335;SDS011;65062;48.446;8.834;2023-03-01T13:14:44;11.13;;;7.97;;
72335;SDS011;65062;48.446;8.834;2023-03-01T13:17:46;7.97;;;5.40;;
72335;SDS011;65062;48.446;8.834;2023-03-01T13:20:47;9.38;;;6.13;;
72335;SDS011;65062;48.446;8.834;2023-03-01T13:23:50;11.18;;;7.57;;
72335;SDS011;65062;48.446;8.834;2023-03-01T13:30:12;12.68;;;8.15;;
72335;SDS011;65062;48.446;8.834;2023-03-01T13:36:49;12.48;;;6.78;;
72335;SDS011;65062;48.446;8.834;2023-03-01T13:39:49;12.57;;;8.55;;
72335;SDS011;65062;48.446;8.834;2023-03-01T13:42:51;13.60;;;7.82;;
72335;SDS011;65062;48.446;8.834;2023-03-01T13:45:52;10.20;;;7.03;;
72335;SDS011;65062;48.446;8.834;2023-03-01T13:48:54;11.27;;;6.68;;
72335;SDS011;65062;48.446;8.834;2023-03-01T13:51:56;12.80;;;7.22;;
72335;SDS011;65062;48.446;8.834;2023-03-01T13:54:57;12.20;;;8.80;;
72335;SDS011;65062;48.446;8.834;2023-03-01T13:57:59;13.23;;;8.70;;
72335;SDS011;65062;48.446;8.834;2023-03-01T14:01:05;11.35;;;8.75;;
72335;SDS011;65062;48.446;8.834;2023-03-01T14:04:18;9.85;;;7.03;;
72335;SDS011;65062;48.446;8.834;2023-03-01T14:07:20;12.68;;;7.65;;
72335;SDS011;65062;48.446;8.834;2023-03-01T14:10:25;14.55;;;9.07;;
72335;SDS011;65062;48.446;8.834;2023-03-01T14:19:55;12.93;;;9.40;;
72335;SDS011;65062;48.446;8.834;2023-03-01T14:22:59;13.32;;;10.85;;
72335;SDS011;65062;48.446;8.834;2023-03-01T14:26:09;14.77;;;10.10;;
72335;SDS011;65062;48.446;8.834;2023-03-01T14:29:32;16.27;;;9.52;;
72335;SDS011;65062;48.446;8.834;2023-03-01T14:32:35;15.30;;;10.00;;
72335;SDS011;65062;48.446;8.834;2023-03-01T14:35:36;13.88;;;9.55;;
72335;SDS011;65062;48.446;8.834;2023-03-01T14:41:46;12.98;;;9.60;;
72335;SDS011;65062;48.446;8.834;2023-03-01T14:44:48;13.35;;;9.68;;
72335;SDS011;65062;48.446;8.834;2023-03-01T14:47:51;14.23;;;9.82;;
72335;SDS011;65062;48.446;8.834;2023-03-01T14:50:52;14.52;;;10.32;;
72335;SDS011;65062;48.446;8.834;2023-03-01T14:53:53;15.50;;;11.05;;
72335;SDS011;65062;48.446;8.834;2023-03-01T14:56:57;14.35;;;10.93;;
72335;SDS011;65062;48.446;8.834;2023-03-01T15:00:01;13.32;;;9.18;;
72335;SDS011;65062;48.446;8.834;2023-03-01T15:03:07;14.02;;;9.68;;
72335;SDS011;65062;48.446;8.834;2023-03-01T15:06:20;13.90;;;10.25;;
72335;SDS011;65062;48.446;8.834;2023-03-01T15:09:22;14.60;;;10.13;;
72335;SDS011;65062;48.446;8.834;2023-03-01T15:12:36;13.63;;;9.73;;
72335;SDS011;65062;48.446;8.834;2023-03-01T15:15:40;16.85;;;8.93;;
72335;SDS011;65062;48.446;8.834;2023-03-01T15:18:43;15.23;;;9.20;;
72335;SDS011;65062;48.446;8.834;2023-03-01T15:21:46;15.35;;;9.93;;
72335;SDS011;65062;48.446;8.834;2023-03-01T15:24:49;17.42;;;9.88;;
72335;SDS011;65062;48.446;8.834;2023-03-01T15:27:51;15.23;;;9.65;;
72335;SDS011;65062;48.446;8.834;2023-03-01T15:31:01;14.57;;;9.43;;
72335;SDS011;65062;48.446;8.834;2023-03-01T15:34:22;15.35;;;10.20;;
72335;SDS011;65062;48.446;8.834;2023-03-01T15:40:49;15.80;;;9.85;;
72335;SDS011;65062;48.446;8.834;2023-03-01T15:43:50;13.68;;;9.13;;
72335;SDS011;65062;48.446;8.834;2023-03-01T15:46:54;13.93;;;8.55;;
72335;SDS011;65062;48.446;8.834;2023-03-01T15:49:54;13.23;;;7.70;;
72335;SDS011;65062;48.446;8.834;2023-03-01T15:52:57;12.65;;;7.13;;
72335;SDS011;65062;48.446;8.834;2023-03-01T15:55:59;13.95;;;8.45;;
72335;SDS011;65062;48.446;8.834;2023-03-01T15:59:00;13.30;;;8.82;;
72335;SDS011;65062;48.446;8.834;2023-03-01T16:02:02;15.73;;;9.38;;
72335;SDS011;65062;48.446;8.834;2023-03-01T16:05:31;15.10;;;9.50;;
72335;SDS011;65062;48.446;8.834;2023-03-01T16:08:31;16.83;;;10.02;;
72335;SDS011;65062;48.446;8.834;2023-03-01T16:11:31;17.60;;;10.82;;
72335;SDS011;65062;48.446;8.834;2023-03-01T16:14:34;16.02;;;9.50;;
72335;SDS011;65062;48.446;8.834;2023-03-01T16:17:34;19.38;;;11.02;;
72335;SDS011;65062;48.446;8.834;2023-03-01T16:20:34;19.08;;;10.70;;
72335;SDS011;65062;48.446;8.834;2023-03-01T16:23:35;17.15;;;9.75;;
72335;SDS011;65062;48.446;8.834;2023-03-01T16:26:36;19.58;;;10.07;;
72335;SDS011;65062;48.446;8.834;2023-03-01T16:29:37;18.00;;;10.35;;
72335;SDS011;65062;48.446;8.834;2023-03-01T16:32:41;19.27;;;9.75;;
72335;SDS011;65062;48.446;8.834;2023-03-01T16:35:43;19.10;;;9.57;;
72335;SDS011;65062;48.446;8.834;2023-03-01T16:38:43;21.10;;;10.57;;
72335;SDS011;65062;48.446;8.834;2023-03-01T16:41:44;18.92;;;10.77;;
72335;SDS011;65062;48.446;8.834;2023-03-01T16:44:44;19.63;;;11.32;;
72335;SDS011;65062;48.446;8.834;2023-03-01T16:47:45;20.00;;;9.88;;
72335;SDS011;65062;48.446;8.834;2023-03-01T16:50:45;22.02;;;10.52;;
72335;SDS011;65062;48.446;8.834;2023-03-01T16:53:55;19.13;;;9.93;;
72335;SDS011;65062;48.446;8.834;2023-03-01T16:56:55;16.75;;;9.75;;
72335;SDS011;65062;48.446;8.834;2023-03-01T16:59:56;18.48;;;9.68;;
72335;SDS011;65062;48.446;8.834;2023-03-01T17:02:57;17.50;;;9.32;;
72335;SDS011;65062;48.446;8.834;2023-03-01T17:06:00;17.83;;;9.18;;
72335;SDS011;65062;48.446;8.834;2023-03-01T17:09:02;16.80;;;9.00;;
72335;SDS011;65062;48.446;8.834;2023-03-01T17:12:03;16.75;;;9.23;;
72335;SDS011;65062;48.446;8.834;2023-03-01T17:15:05;19.65;;;9.77;;
72335;SDS011;65062;48.446;8.834;2023-03-01T17:21:07;16.85;;;8.40;;
72335;SDS011;65062;48.446;8.834;2023-03-01T17:27:09;21.70;;;10.63;;
72335;SDS011;65062;48.446;8.834;2023-03-01T17:30:11;18.83;;;9.27;;
72335;SDS011;65062;48.446;8.834;2023-03-01T17:33:14;16.88;;;8.52;;
72335;SDS011;65062;48.446;8.834;2023-03-01T17:36:15;19.70;;;9.90;;
72335;SDS011;65062;48.446;8.834;2023-03-01T17:39:15;18.15;;;9.13;;
72335;SDS011;65062;48.446;8.834;2023-03-01T17:42:16;17.70;;;8.95;;
72335;SDS011;65062;48.446;8.834;2023-03-01T17:45:16;20.15;;;9.90;;
72335;SDS011;65062;48.446;8.834;2023-03-01T17:48:17;19.35;;;10.27;;
72335;SDS011;65062;48.446;8.834;2023-03-01T17:51:17;22.13;;;11.32;;
72335;SDS011;65062;48.446;8.834;2023-03-01T17:54:18;26.70;;;14.80;;
72335;SDS011;65062;48.446;8.834;2023-03-01T17:57:18;19.98;;;11.00;;
72335;SDS011;65062;48.446;8.834;2023-03-01T18:00:18;22.83;;;9.05;;
72335;SDS011;65062;48.446;8.834;2023-03-01T18:03:19;19.30;;;9.95;;
72335;SDS011;65062;48.446;8.834;2023-03-01T18:06:21;24.02;;;13.43;;
72335;SDS011;65062;48.446;8.834;2023-03-01T18:09:25;21.60;;;11.88;;
72335;SDS011;65062;48.446;8.834;2023-03-01T18:12:26;20.98;;;9.98;;
72335;SDS011;65062;48.446;8.834;2023-03-01T18:15:27;19.50;;;10.40;;
72335;SDS011;65062;48.446;8.834;2023-03-01T18:18:27;21.70;;;11.10;;
72335;SDS011;65062;48.446;8.834;2023-03-01T18:21:28;20.00;;;10.00;;
72335;SDS011;65062;48.446;8.834;2023-03-01T18:24:29;23.67;;;10.10;;
72335;SDS011;65062;48.446;8.834;2023-03-01T18:27:29;17.35;;;9.18;;
72335;SDS011;65062;48.446;8.834;2023-03-01T18:30:30;21.55;;;9.55;;
72335;SDS011;65062;48.446;8.834;2023-03-01T18:33:31;21.35;;;9.88;;
72335;SDS011;65062;48.446;8.834;2023-03-01T18:36:32;22.77;;;9.60;;
72335;SDS011;65062;48.446;8.834;2023-03-01T18:39:34;20.83;;;10.63;;
72335;SDS011;65062;48.446;8.834;2023-03-01T18:42:34;19.05;;;9.23;;
72335;SDS011;65062;48.446;8.834;2023-03-01T18:45:35;18.10;;;9.23;;
72335;SDS011;65062;48.446;8.834;2023-03-01T18:48:35;20.92;;;9.90;;
72335;SDS011;65062;48.446;8.834;2023-03-01T18:51:36;20.90;;;9.80;;
72335;SDS011;65062;48.446;8.834;2023-03-01T18:54:36;19.85;;;10.10;;
72335;SDS011;65062;48.446;8.834;2023-03-01T18:57:37;21.15;;;9.63;;
72335;SDS011;65062;48.446;8.834;2023-03-01T19:00:37;18.33;;;9.93;;
72335;SDS011;65062;48.446;8.834;2023-03-01T19:03:38;20.92;;;9.82;;
72335;SDS011;65062;48.446;8.834;2023-03-01T19:06:38;24.63;;;11.30;;
72335;SDS011;65062;48.446;8.834;2023-03-01T19:09:39;20.95;;;11.00;;
72335;SDS011;65062;48.446;8.834;2023-03-01T19:12:39;20.05;;;10.55;;
72335;SDS011;65062;48.446;8.834;2023-03-01T19:15:40;28.45;;;12.05;;
72335;SDS011;65062;48.446;8.834;2023-03-01T19:18:41;40.47;;;18.67;;
72335;SDS011;65062;48.446;8.834;2023-03-01T19:21:42;31.90;;;16.52;;
72335;SDS011;65062;48.446;8.834;2023-03-01T19:24:43;31.42;;;14.38;;
72335;SDS011;65062;48.446;8.834;2023-03-01T19:27:43;30.05;;;15.40;;
72335;SDS011;65062;48.446;8.834;2023-03-01T19:30:44;27.52;;;13.50;;
72335;SDS011;65062;48.446;8.834;2023-03-01T19:33:44;32.95;;;14.80;;
72335;SDS011;65062;48.446;8.834;2023-03-01T19:36:45;29.90;;;14.85;;
72335;SDS011;65062;48.446;8.834;2023-03-01T19:39:47;29.38;;;14.85;;
72335;SDS011;65062;48.446;8.834;2023-03-01T19:42:47;31.58;;;15.23;;
72335;SDS011;65062;48.446;8.834;2023-03-01T19:45:51;23.73;;;11.55;;
72335;SDS011;65062;48.446;8.834;2023-03-01T19:48:54;24.83;;;10.90;;
72335;SDS011;65062;48.446;8.834;2023-03-01T19:51:54;26.52;;;12.75;;
72335;SDS011;65062;48.446;8.834;2023-03-01T19:54:55;24.02;;;10.38;;
72335;SDS011;65062;48.446;8.834;2023-03-01T19:57:55;22.63;;;10.90;;
72335;SDS011;65062;48.446;8.834;2023-03-01T20:00:56;22.00;;;10.82;;
72335;SDS011;65062;48.446;8.834;2023-03-01T20:04:00;20.80;;;10.52;;
72335;SDS011;65062;48.446;8.834;2023-03-01T20:07:01;32.38;;;11.98;;